Portada
METAR-TAF:

METAR-TAF

Aeroports :

Normanton, Austràlia

latitud: 17-41-06S, longitud: 141-04-12E, altitud: 22 m

Observació

L'informe es va fer fa 1 hora i 10 minuts, a les 16:00 UTC
Vent 8 kt del Sud
Temperatura 25°C
Humitat 47%
Pressió 1010 hPa
Visibilitat 10 km o més

METAR: YNTN 201600Z AUTO 17008KT 9999 // NCD 25/13 Q1010

Hora: 03:10 (17:10 UTC)


TAF: manca

Observacions i pronòstics meteorològics de més de 4000 aeroports (METAR i TAF).

Les estacions disponibles són els punts grocs i vermells al mapa.

Posi el ratolí al punt desitjat per veure el nom de l'estació.

Feu clic per veure les observacions i els pronòstics meteorològics.

Per canviar el mapa: feu clic els botons verds amb una creu de color negre per apropar; al botó verd amb un guió per allunyar la imatge; o en les fletxes verdes per a mapes adjacents.


METAR-TAF: